Time;durP1;ratioP1;P1;durP2;ratioP2;P2;SDS_P1;SDS_P2;PMS_P1;PMS_P2;Temp;Humidity;BMP_temperature;BMP_pressure;BME280_temperature;BME280_humidity;BME280_pressure;Samples;Min_cycle;Max_cycle;Signal;HPM_P1;HPM_P2
2021/03/25 11:35:23;;;;;;;58.00;54.63;;;;;;;;;;5090881;28;20532;-76
2021/03/25 11:37:51;;;;;;;59.75;55.65;;;;;;;;;;5089606;28;20180;-79
2021/03/25 11:40:19;;;;;;;65.45;60.70;;;;;;;;;;5090820;28;20163;-72
2021/03/25 11:42:46;;;;;;;61.45;57.85;;;;;;;;;;5090769;28;20199;-71
2021/03/25 11:45:31;;;;;;;64.20;60.30;;;;;;;;;;5089430;28;20175;-70
2021/03/25 11:47:59;;;;;;;65.25;61.17;;;;;;;;;;5090650;28;20217;-72
2021/03/25 11:50:25;;;;;;;66.00;62.53;;;;;;;;;;5090615;28;20175;-74
2021/03/25 11:52:53;;;;;;;71.47;67.03;;;;;;;;;;5090500;28;20213;-74
2021/03/25 11:55:21;;;;;;;70.47;65.88;;;;;;;;;;5089332;28;20179;-74
2021/03/25 11:57:50;;;;;;;70.38;66.22;;;;;;;;;;5090492;28;20225;-74
2021/03/25 12:00:18;;;;;;;67.15;63.03;;;;;;;;;;5090409;28;20170;-75
2021/03/25 12:02:45;;;;;;;69.03;64.93;;;;;;;;;;5090595;28;20168;-75
2021/03/25 12:05:23;;;;;;;73.63;69.30;;;;;;;;;;5090431;28;20235;-76
2021/03/25 12:08:04;;;;;;;68.63;64.60;;;;;;;;;;5090325;28;20164;-75
2021/03/25 12:10:31;;;;;;;62.67;59.38;;;;;;;;;;5090288;28;20541;-78
2021/03/25 12:12:57;;;;;;;65.13;61.53;;;;;;;;;;5090107;28;20183;-77
2021/03/25 12:15:23;;;;;;;66.72;62.92;;;;;;;;;;5089077;28;20168;-77
2021/03/25 12:17:54;;;;;;;64.07;60.60;;;;;;;;;;5088915;28;20179;-75
2021/03/25 12:20:22;;;;;;;62.75;58.17;;;;;;;;;;5088704;28;20167;-77
2021/03/25 12:22:48;;;;;;;62.80;59.30;;;;;;;;;;5090015;28;20183;-78
2021/03/25 12:25:14;;;;;;;65.95;62.38;;;;;;;;;;5088630;28;20190;-79
2021/03/25 12:27:40;;;;;;;64.75;61.42;;;;;;;;;;5089911;28;20164;-79
2021/03/25 12:30:07;;;;;;;63.55;59.95;;;;;;;;;;5090140;28;20248;-79
2021/03/25 12:32:33;;;;;;;64.03;60.60;;;;;;;;;;5089970;28;20629;-78
2021/03/25 12:35:01;;;;;;;66.38;62.47;;;;;;;;;;5089571;28;20230;-78
2021/03/25 12:37:27;;;;;;;59.50;56.50;;;;;;;;;;5089679;28;20163;-80
2021/03/25 12:39:53;;;;;;;61.95;58.60;;;;;;;;;;5089745;28;20171;-78
2021/03/25 12:42:20;;;;;;;63.70;60.35;;;;;;;;;;5089711;28;20164;-79
2021/03/25 12:44:46;;;;;;;64.85;60.88;;;;;;;;;;5085676;28;20630;-79
2021/03/25 12:47:12;;;;;;;63.65;60.08;;;;;;;;;;5076067;28;20172;-71
2021/03/25 12:49:39;;;;;;;62.28;59.05;;;;;;;;;;5074744;28;20180;-70
2021/03/25 12:52:05;;;;;;;59.28;56.17;;;;;;;;;;5075900;28;20218;-70
2021/03/25 12:54:31;;;;;;;61.55;58.47;;;;;;;;;;5075933;28;20203;-70
2021/03/25 12:56:58;;;;;;;60.10;56.58;;;;;;;;;;5075913;28;20626;-70
2021/03/25 12:59:25;;;;;;;60.17;57.38;;;;;;;;;;5074621;28;20168;-70
2021/03/25 13:01:52;;;;;;;64.00;60.38;;;;;;;;;;5074510;28;20533;-70
2021/03/25 13:04:18;;;;;;;61.60;58.15;;;;;;;;;;5075694;28;20173;-70
2021/03/25 13:06:44;;;;;;;62.80;59.25;;;;;;;;;;5075640;28;20200;-70
2021/03/25 13:09:10;;;;;;;68.65;64.75;;;;;;;;;;5075707;28;20168;-70
2021/03/25 13:11:36;;;;;;;63.33;59.78;;;;;;;;;;5074367;28;20191;-70
2021/03/25 13:14:03;;;;;;;66.63;63.30;;;;;;;;;;5075535;28;20290;-70
2021/03/25 13:16:29;;;;;;;70.40;66.40;;;;;;;;;;5075565;28;20630;-70
2021/03/25 13:18:55;;;;;;;67.70;64.43;;;;;;;;;;5075533;28;20180;-71
2021/03/25 13:21:21;;;;;;;67.78;64.22;;;;;;;;;;5075377;28;20169;-76
2021/03/25 13:23:47;;;;;;;69.07;65.57;;;;;;;;;;5075449;28;20187;-76
2021/03/25 13:26:14;;;;;;;72.53;69.07;;;;;;;;;;5075297;28;20168;-74
2021/03/25 13:28:40;;;;;;;73.15;69.60;;;;;;;;;;5075222;28;20208;-70
2021/03/25 13:31:07;;;;;;;73.18;69.57;;;;;;;;;;5074010;28;20575;-74
2021/03/25 13:33:34;;;;;;;74.97;70.97;;;;;;;;;;5074987;28;20224;-72
2021/03/25 13:36:00;;;;;;;69.55;66.22;;;;;;;;;;5075091;28;20164;-72
2021/03/25 13:38:26;;;;;;;68.78;65.65;;;;;;;;;;5075136;28;20169;-72
2021/03/25 13:40:52;;;;;;;67.35;64.15;;;;;;;;;;5075121;28;20516;-72
2021/03/25 13:43:20;;;;;;;70.85;67.50;;;;;;;;;;5075060;28;20176;-72
2021/03/25 13:45:47;;;;;;;68.05;64.80;;;;;;;;;;5075039;28;20247;-72
2021/03/25 13:48:13;;;;;;;68.78;65.63;;;;;;;;;;5074836;28;20252;-72
2021/03/25 13:50:42;;;;;;;68.03;64.53;;;;;;;;;;5074894;28;20173;-72
2021/03/25 13:53:08;;;;;;;68.72;65.35;;;;;;;;;;5074803;28;20534;-72
2021/03/25 13:55:38;;;;;;;71.03;67.43;;;;;;;;;;5074971;28;20172;-72
2021/03/25 13:58:05;;;;;;;73.90;70.45;;;;;;;;;;5073726;28;20165;-72
2021/03/25 14:00:31;;;;;;;70.68;67.18;;;;;;;;;;5074721;28;20172;-72
2021/03/25 14:02:57;;;;;;;69.30;66.10;;;;;;;;;;5074460;28;20243;-72
2021/03/25 14:05:25;;;;;;;69.28;65.90;;;;;;;;;;5073308;28;20168;-72
2021/03/25 14:07:51;;;;;;;71.38;67.00;;;;;;;;;;5074467;28;20233;-72
2021/03/25 14:10:18;;;;;;;66.80;63.17;;;;;;;;;;5074488;28;20165;-72
2021/03/25 14:12:44;;;;;;;65.13;62.08;;;;;;;;;;5074397;28;20160;-72
2021/03/25 14:15:11;;;;;;;64.43;61.35;;;;;;;;;;5074379;28;20175;-72
2021/03/25 14:17:38;;;;;;;66.85;63.72;;;;;;;;;;5074278;28;20199;-72
2021/03/25 14:20:05;;;;;;;67.03;63.53;;;;;;;;;;5074294;28;20578;-72
2021/03/25 14:22:31;;;;;;;62.35;59.35;;;;;;;;;;5074206;28;20254;-72
2021/03/25 14:24:57;;;;;;;63.97;60.88;;;;;;;;;;5074147;28;20220;-72
2021/03/25 14:27:23;;;;;;;64.30;61.22;;;;;;;;;;5074096;28;20165;-72
2021/03/25 14:29:49;;;;;;;63.88;60.67;;;;;;;;;;5073949;28;20198;-72
2021/03/25 14:32:15;;;;;;;64.63;60.60;;;;;;;;;;5073977;28;20196;-74
2021/03/25 14:34:41;;;;;;;67.40;64.20;;;;;;;;;;5073818;28;20220;-74
2021/03/25 14:37:07;;;;;;;65.70;62.63;;;;;;;;;;5072690;28;20172;-74
2021/03/25 14:39:33;;;;;;;62.13;59.25;;;;;;;;;;5073893;28;20176;-75
2021/03/25 14:41:59;;;;;;;65.60;62.47;;;;;;;;;;5073871;28;20590;-76
2021/03/25 14:44:25;;;;;;;66.32;63.13;;;;;;;;;;5072644;28;20219;-76
2021/03/25 14:46:51;;;;;;;69.50;66.22;;;;;;;;;;5073690;28;20192;-75
2021/03/25 14:49:17;;;;;;;66.90;63.67;;;;;;;;;;5073744;28;20565;-76
2021/03/25 14:51:43;;;;;;;65.75;62.65;;;;;;;;;;5073728;28;20169;-77
2021/03/25 14:54:10;;;;;;;68.70;65.63;;;;;;;;;;5073775;28;20222;-76
2021/03/25 14:56:36;;;;;;;68.20;65.20;;;;;;;;;;5072411;28;20172;-73
2021/03/25 14:59:02;;;;;;;67.60;64.55;;;;;;;;;;5072329;28;20180;-73
2021/03/25 15:01:28;;;;;;;70.68;67.20;;;;;;;;;;5073537;28;20206;-73
2021/03/25 15:03:54;;;;;;;66.15;63.20;;;;;;;;;;5073478;28;20679;-73
2021/03/25 15:06:20;;;;;;;67.80;64.65;;;;;;;;;;5073480;28;20169;-73
2021/03/25 15:08:46;;;;;;;71.55;67.97;;;;;;;;;;5073257;28;20251;-72
2021/03/25 15:11:12;;;;;;;68.30;65.22;;;;;;;;;;5073462;28;20164;-73
2021/03/25 15:13:39;;;;;;;69.03;65.97;;;;;;;;;;5073418;28;20179;-72
2021/03/25 15:16:05;;;;;;;65.75;62.60;;;;;;;;;;5072138;28;20529;-72
